Time;durP1;ratioP1;P1;durP2;ratioP2;P2;SDS_P1;SDS_P2;PMS_P1;PMS_P2;Temp;Humidity;BMP_temperature;BMP_pressure;BME280_temperature;BME280_humidity;BME280_pressure;Samples;Min_cycle;Max_cycle;Signal;HPM_P1;HPM_P2
2023/09/12 00:00:09;;;;;;;23.10;16.50;;;;;;;18.00;86.55;100393.27;105234;1272;99455;-82
2023/09/12 00:03:20;;;;;;;20.10;15.80;;;;;;;17.97;86.34;100388.66;105085;1272;100229;-82
2023/09/12 00:06:06;;;;;;;20.60;17.30;;;;;;;17.96;86.70;100389.73;105078;1273;99358;-82
2023/09/12 00:08:52;;;;;;;18.70;16.20;;;;;;;17.95;86.94;100385.52;105129;1273;99787;-82
2023/09/12 00:11:38;;;;;;;19.80;16.00;;;;;;;17.91;86.50;100383.02;105121;1273;104040;-81
2023/09/12 00:14:23;;;;;;;21.90;16.00;;;;;;;17.87;86.25;100385.73;105041;1270;100488;-82
2023/09/12 00:17:09;;;;;;;18.30;15.50;;;;;;;17.85;86.49;100384.23;105197;1270;99347;-83
2023/09/12 00:19:54;;;;;;;18.50;15.30;;;;;;;17.82;86.47;100383.35;105065;1275;99729;-81
2023/09/12 00:22:40;;;;;;;23.00;16.00;;;;;;;17.78;86.32;100383.27;105234;1272;99819;-82
2023/09/12 00:25:25;;;;;;;21.90;15.30;;;;;;;17.72;86.14;100381.86;105204;1273;104260;-81
2023/09/12 00:28:11;;;;;;;22.60;17.10;;;;;;;17.67;86.25;100382.67;105207;1267;100440;-82
2023/09/12 00:30:56;;;;;;;21.20;16.70;;;;;;;17.64;86.25;100382.23;105195;1270;99322;-82
2023/09/12 00:33:42;;;;;;;18.40;15.00;;;;;;;17.63;86.44;100381.55;104908;1276;99411;-82
2023/09/12 00:36:27;;;;;;;18.40;15.10;;;;;;;17.60;86.32;100378.52;105068;1274;99256;-81
2023/09/12 00:39:12;;;;;;;21.30;16.40;;;;;;;17.55;86.27;100379.75;105318;1270;102784;-82
2023/09/12 00:41:58;;;;;;;18.70;16.70;;;;;;;17.52;86.74;100377.63;105088;1269;99333;-83
2023/09/12 00:44:43;;;;;;;17.80;14.90;;;;;;;17.51;86.76;100374.27;105028;1273;100646;-82
2023/09/12 00:47:30;;;;;;;19.00;16.20;;;;;;;17.49;86.90;100377.63;105064;1271;99454;-82
2023/09/12 00:50:17;;;;;;;21.30;16.30;;;;;;;17.47;87.12;100377.86;105214;1270;99258;-82
2023/09/12 00:53:04;;;;;;;19.60;16.40;;;;;;;17.46;87.21;100371.51;105124;1270;104065;-83
2023/09/12 00:55:57;;;;;;;21.90;17.30;;;;;;;17.45;87.34;100368.94;105198;1274;101227;-82
2023/09/12 00:58:43;;;;;;;28.10;20.50;;;;;;;17.46;87.85;100370.09;104988;1274;99367;-82
2023/09/12 01:01:28;;;;;;;28.40;20.40;;;;;;;17.47;88.35;100367.83;105218;1270;99435;-81
2023/09/12 01:04:14;;;;;;;24.20;20.40;;;;;;;17.46;88.10;100369.17;105221;1271;99863;-82
2023/09/12 01:06:59;;;;;;;25.20;20.00;;;;;;;17.46;88.13;100369.27;105110;1270;104039;-82
2023/09/12 01:09:45;;;;;;;28.10;19.60;;;;;;;17.46;88.07;100366.04;105151;1273;100368;-83
2023/09/12 01:12:31;;;;;;;24.90;20.20;;;;;;;17.45;88.08;100361.78;105243;1270;100680;-83
2023/09/12 01:15:16;;;;;;;27.20;20.00;;;;;;;17.43;88.21;100357.73;105080;1273;99530;-81
2023/09/12 01:18:02;;;;;;;27.70;21.50;;;;;;;17.42;88.06;100358.83;105278;1273;99848;-83
2023/09/12 01:21:13;;;;;;;26.10;19.70;;;;;;;17.39;88.29;100359.27;105123;1273;102798;-82
2023/09/12 01:24:23;;;;;;;23.40;19.40;;;;;;;17.35;88.05;100358.35;105155;1273;99920;-82
2023/09/12 01:27:11;;;;;;;24.60;19.60;;;;;;;17.32;88.04;100360.45;105361;1269;99363;-83
2023/09/12 01:30:04;;;;;;;26.20;19.90;;;;;;;17.30;88.21;100359.39;105314;1273;99358;-83
2023/09/12 01:32:51;;;;;;;22.10;19.60;;;;;;;17.28;87.94;100362.42;105219;1271;99452;-82
2023/09/12 01:35:36;;;;;;;26.10;21.60;;;;;;;17.26;88.02;100362.80;104990;1276;102730;-83
2023/09/12 01:38:22;;;;;;;29.30;23.00;;;;;;;17.23;88.01;100362.23;105060;1270;99345;-83
2023/09/12 01:41:08;;;;;;;27.00;22.20;;;;;;;17.19;87.85;100367.92;105156;1270;99410;-82
2023/09/12 01:43:56;;;;;;;31.60;23.50;;;;;;;17.17;88.00;100372.00;105239;1273;99457;-82
2023/09/12 01:46:43;;;;;;;29.60;22.90;;;;;;;17.15;88.06;100376.41;105124;1270;100101;-83
2023/09/12 01:49:31;;;;;;;26.80;21.60;;;;;;;17.12;87.96;100372.55;105406;1270;104034;-82
2023/09/12 01:52:16;;;;;;;33.80;22.40;;;;;;;17.09;87.79;100375.56;105198;1276;99422;-83
2023/09/12 01:55:03;;;;;;;28.50;22.00;;;;;;;17.06;88.19;100380.14;105040;1269;99438;-82
2023/09/12 01:57:49;;;;;;;24.50;20.70;;;;;;;17.03;88.23;100377.69;105162;1270;99339;-82
2023/09/12 02:00:35;;;;;;;25.60;20.30;;;;;;;17.00;88.07;100377.29;105222;1270;99449;-83
2023/09/12 02:03:21;;;;;;;25.10;20.10;;;;;;;16.96;88.25;100374.48;105187;1274;102841;-81
2023/09/12 02:06:07;;;;;;;24.20;18.10;;;;;;;16.91;88.16;100377.55;105148;1270;99311;-82
2023/09/12 02:08:52;;;;;;;19.10;17.00;;;;;;;16.86;88.42;100381.88;104933;1273;99237;-83
2023/09/12 02:11:38;;;;;;;18.10;16.10;;;;;;;16.81;88.25;100381.74;105197;1273;99309;-82
2023/09/12 02:14:23;;;;;;;23.40;16.10;;;;;;;16.75;88.06;100382.02;105093;1273;101108;-83
2023/09/12 02:17:09;;;;;;;19.30;15.30;;;;;;;16.69;88.05;100385.61;105043;1270;103488;-81
2023/09/12 02:19:54;;;;;;;16.30;14.60;;;;;;;16.64;87.90;100380.27;105164;1273;100076;-82
2023/09/12 02:22:40;;;;;;;15.70;14.20;;;;;;;16.58;87.86;100374.76;105042;1277;99351;-81
2023/09/12 02:25:25;;;;;;;15.50;13.00;;;;;;;16.52;87.96;100378.45;105208;1273;99367;-83
2023/09/12 02:28:10;;;;;;;17.60;14.70;;;;;;;16.48;88.13;100377.75;105200;1270;99435;-82
2023/09/12 02:30:55;;;;;;;18.20;13.50;;;;;;;16.43;88.06;100378.27;105244;1267;102794;-83
2023/09/12 02:33:41;;;;;;;16.80;14.80;;;;;;;16.38;88.04;100379.01;105069;1270;99438;-82
2023/09/12 02:36:28;;;;;;;16.60;14.80;;;;;;;16.34;88.43;100380.27;104967;1273;99360;-83
2023/09/12 02:39:14;;;;;;;17.50;15.60;;;;;;;16.34;88.61;100379.28;105018;1273;99387;-81
2023/09/12 02:42:00;;;;;;;18.80;14.60;;;;;;;16.33;88.61;100383.00;105123;1269;99802;-82
2023/09/12 02:44:47;;;;;;;17.40;15.50;;;;;;;16.35;88.53;100382.05;105268;1272;104067;-83
2023/09/12 02:47:32;;;;;;;17.70;15.30;;;;;;;16.38;88.55;100380.36;105402;1270;99322;-83
2023/09/12 02:50:18;;;;;;;18.90;15.50;;;;;;;16.39;88.72;100379.84;105143;1273;100021;-83
2023/09/12 02:53:03;;;;;;;19.30;16.20;;;;;;;16.37;88.66;100380.73;105216;1269;100579;-83
2023/09/12 02:55:48;;;;;;;21.30;16.40;;;;;;;16.36;88.45;100377.52;105181;1273;99873;-82
2023/09/12 02:58:34;;;;;;;19.10;16.60;;;;;;;16.37;88.81;100374.28;105290;1273;111366;-83
2023/09/12 03:01:20;;;;;;;22.10;16.80;;;;;;;16.38;88.86;100375.77;105053;1270;101286;-81
2023/09/12 03:04:05;;;;;;;23.10;19.40;;;;;;;16.39;89.09;100372.88;104931;1276;99461;-82
2023/09/12 03:06:51;;;;;;;21.80;18.40;;;;;;;16.39;89.18;100376.01;105128;1271;99364;-82
2023/09/12 03:09:38;;;;;;;19.70;17.60;;;;;;;16.38;89.12;100374.40;104926;1270;99783;-83
2023/09/12 03:12:24;;;;;;;18.90;17.00;;;;;;;16.36;89.09;100374.59;105261;1270;104549;-83
2023/09/12 03:15:09;;;;;;;20.90;16.90;;;;;;;16.35;88.95;100375.77;105020;1275;100678;-82
2023/09/12 03:17:55;;;;;;;20.30;17.40;;;;;;;16.32;88.71;100373.52;104998;1270;99402;-83
2023/09/12 03:20:41;;;;;;;22.70;18.10;;;;;;;16.28;88.58;100375.48;105126;1270;99408;-83
2023/09/12 03:23:27;;;;;;;19.00;17.00;;;;;;;16.26;88.65;100376.40;105066;1276;99797;-82
2023/09/12 03:26:14;;;;;;;22.30;17.80;;;;;;;16.24;88.74;100374.75;105165;1270;102734;-84
2023/09/12 03:28:59;;;;;;;23.70;18.70;;;;;;;16.24;89.06;100375.21;105271;1270;100059;-82
2023/09/12 03:31:45;;;;;;;23.80;18.90;;;;;;;16.22;89.02;100373.92;105120;1270;99354;-83
2023/09/12 03:34:31;;;;;;;22.20;18.80;;;;;;;16.19;88.92;100375.15;105095;1270;99348;-82
2023/09/12 03:37:17;;;;;;;21.80;17.60;;;;;;;16.17;88.74;100378.84;105269;1269;99793;-82
2023/09/12 03:40:04;;;;;;;20.60;17.10;;;;;;;16.14;88.77;100381.13;105174;1270;103446;-83
2023/09/12 03:42:50;;;;;;;21.40;18.30;;;;;;;16.12;88.58;100386.56;105191;1271;100496;-82
2023/09/12 03:45:35;;;;;;;19.00;17.00;;;;;;;16.07;88.79;100386.50;105061;1273;99326;-83
2023/09/12 03:48:21;;;;;;;20.90;18.50;;;;;;;16.03;88.93;100387.84;104883;1276;100634;-82
2023/09/12 03:51:08;;;;;;;20.80;17.90;;;;;;;16.00;89.01;100386.83;105257;1270;99135;-82
2023/09/12 03:53:53;;;;;;;24.30;19.10;;;;;;;15.97;88.94;100388.70;105180;1270;102725;-83
2023/09/12 03:56:39;;;;;;;25.10;19.30;;;;;;;15.96;88.88;100387.35;105222;1270;99878;-83
2023/09/12 03:59:24;;;;;;;22.60;18.20;;;;;;;15.94;88.99;100388.54;105224;1273;99299;-83
2023/09/12 04:02:11;;;;;;;28.30;19.90;;;;;;;15.91;88.98;100385.70;105351;1267;99334;-83
2023/09/12 04:04:59;;;;;;;22.10;19.10;;;;;;;15.91;89.23;100388.03;105077;1270;99793;-83
2023/09/12 04:07:44;;;;;;;26.50;19.90;;;;;;;15.92;89.22;100389.77;105107;1273;104016;-83
2023/09/12 04:10:32;;;;;;;22.50;20.00;;;;;;;15.90;89.19;100385.84;105028;1271;99327;-82
2023/09/12 04:13:17;;;;;;;27.00;20.60;;;;;;;15.91;89.56;100386.13;105046;1270;99428;-82
2023/09/12 04:16:03;;;;;;;24.20;19.90;;;;;;;15.92;89.70;100386.90;105015;1272;99319;-82
2023/09/12 04:18:49;;;;;;;25.50;21.20;;;;;;;15.91;89.58;100388.08;105070;1270;99936;-82
2023/09/12 04:21:34;;;;;;;25.50;20.90;;;;;;;15.89;89.79;100387.14;105392;1273;102873;-83
2023/09/12 04:24:20;;;;;;;23.80;19.20;;;;;;;15.88;89.99;100389.02;105234;1273;99230;-82
2023/09/12 04:27:06;;;;;;;25.80;20.70;;;;;;;15.88;89.92;100387.06;105113;1270;100474;-82
2023/09/12 04:29:52;;;;;;;23.70;20.40;;;;;;;15.89;90.03;100385.89;105156;1270;99422;-84
2023/09/12 04:32:38;;;;;;;25.00;21.30;;;;;;;15.90;89.91;100386.76;105283;1273;99531;-81
2023/09/12 04:35:25;;;;;;;26.20;21.10;;;;;;;15.90;89.78;100384.55;104803;1270;104018;-83
2023/09/12 04:38:10;;;;;;;25.60;20.50;;;;;;;15.91;89.99;100385.41;105313;1269;99374;-82
2023/09/12 04:40:57;;;;;;;26.80;20.80;;;;;;;15.91;90.04;100385.80;105212;1269;99383;-83
2023/09/12 04:43:44;;;;;;;26.00;21.40;;;;;;;15.92;89.99;100389.89;105149;1270;99390;-83
2023/09/12 04:46:30;;;;;;;26.60;20.80;;;;;;;15.93;90.18;100392.62;105140;1271;99793;-83
2023/09/12 04:49:15;;;;;;;26.10;20.80;;;;;;;15.94;90.24;100392.44;105003;1284;103817;-82
2023/09/12 04:52:01;;;;;;;25.10;20.20;;;;;;;15.95;90.25;100389.10;105022;1271;100397;-82
2023/09/12 04:54:46;;;;;;;23.50;21.00;;;;;;;15.95;90.13;100389.39;105183;1273;99256;-82
2023/09/12 04:57:32;;;;;;;23.90;20.00;;;;;;;15.97;90.28;100388.41;105066;1273;99330;-83
2023/09/12 05:00:18;;;;;;;30.70;21.30;;;;;;;16.01;90.81;100385.83;105266;1270;99436;-83
2023/09/12 05:03:04;;;;;;;24.80;20.70;;;;;;;16.04;90.68;100389.33;105093;1270;104001;-82
2023/09/12 05:05:50;;;;;;;26.40;21.20;;;;;;;16.06;90.88;100393.58;104956;1270;99812;-83
2023/09/12 05:08:36;;;;;;;25.70;19.80;;;;;;;16.06;90.96;100395.19;104838;1274;99364;-82
2023/09/12 05:11:24;;;;;;;30.70;19.40;;;;;;;16.06;91.27;100401.77;104917;1271;99326;-82
2023/09/12 05:14:09;;;;;;;24.50;20.10;;;;;;;16.08;91.77;100403.74;105034;1270;99234;-82
2023/09/12 05:16:55;;;;;;;24.40;19.00;;;;;;;16.10;92.11;100408.66;104977;1273;102845;-82
2023/09/12 05:19:41;;;;;;;26.80;21.20;;;;;;;16.11;92.20;100406.61;105051;1270;99725;-82
2023/09/12 05:22:27;;;;;;;25.40;21.00;;;;;;;16.14;92.36;100408.35;105040;1270;99373;-83
2023/09/12 05:25:13;;;;;;;24.30;19.90;;;;;;;16.18;92.65;100409.92;105139;1270;99339;-82
2023/09/12 05:27:58;;;;;;;25.90;19.20;;;;;;;16.22;92.57;100408.34;105180;1273;99749;-81
2023/09/12 05:30:44;;;;;;;25.00;18.50;;;;;;;16.26;92.74;100408.50;105118;1272;103989;-83
2023/09/12 05:33:30;;;;;;;29.30;21.00;;;;;;;16.29;93.05;100411.57;105531;1269;99335;-82
2023/09/12 05:36:16;;;;;;;27.00;22.40;;;;;;;16.34;93.56;100408.48;105250;1273;99377;-82
2023/09/12 05:39:03;;;;;;;31.40;22.30;;;;;;;16.39;93.74;100408.36;105057;1273;99539;-83
2023/09/12 05:41:49;;;;;;;30.30;22.70;;;;;;;16.45;94.14;100411.81;105050;1273;99344;-82
2023/09/12 05:44:35;;;;;;;25.40;22.50;;;;;;;16.51;94.36;100415.61;105043;1270;104168;-83
2023/09/12 05:47:21;;;;;;;31.60;24.90;;;;;;;16.58;94.65;100413.48;105236;1270;99341;-82
2023/09/12 05:50:07;;;;;;;30.10;23.80;;;;;;;16.65;94.72;100412.92;105061;1286;99339;-81
2023/09/12 05:52:53;;;;;;;32.90;24.90;;;;;;;16.74;94.96;100412.30;104978;1270;99428;-82
2023/09/12 05:55:39;;;;;;;38.90;29.50;;;;;;;16.84;95.81;100414.02;105105;1271;100046;-80
2023/09/12 05:58:24;;;;;;;38.50;29.40;;;;;;;16.94;96.70;100411.55;106210;1273;102718;-92
2023/09/12 06:01:10;;;;;;;35.80;30.60;;;;;;;17.05;97.13;100411.79;105518;1273;100625;-87
2023/09/12 06:03:57;;;;;;;44.90;32.70;;;;;;;17.17;97.49;100410.11;105477;1269;99317;-86
2023/09/12 06:06:45;;;;;;;37.20;32.00;;;;;;;17.28;97.82;100413.58;105656;1270;99890;-88
2023/09/12 06:09:42;;;;;;;37.30;31.70;;;;;;;17.39;98.09;100418.13;106275;1269;99265;-94
2023/09/12 06:12:37;;;;;;;37.80;30.80;;;;;;;17.52;98.88;100421.59;106227;1270;103969;-91
2023/09/12 06:15:24;;;;;;;35.90;28.60;;;;;;;17.63;99.48;100424.79;105840;1270;100455;-87
2023/09/12 06:18:10;;;;;;;32.50;25.60;;;;;;;17.75;99.93;100423.30;105597;1276;99295;-89
2023/09/12 06:20:57;;;;;;;27.00;24.20;;;;;;;17.84;99.90;100422.21;105710;1270;99351;-91
2023/09/12 06:23:43;;;;;;;32.00;26.10;;;;;;;17.94;99.91;100421.23;105672;1273;99307;-86
2023/09/12 06:26:30;;;;;;;35.40;29.80;;;;;;;18.05;100.00;100423.90;105956;1270;104937;-92
2023/09/12 06:29:16;;;;;;;36.30;31.80;;;;;;;18.16;100.00;100422.84;106055;1270;101536;-90
2023/09/12 06:32:03;;;;;;;36.30;29.10;;;;;;;18.27;100.00;100422.84;105668;1270;99122;-91
2023/09/12 06:34:48;;;;;;;34.60;30.20;;;;;;;18.39;100.00;100423.17;105833;1275;99260;-88
2023/09/12 06:37:34;;;;;;;38.50;31.10;;;;;;;18.51;100.00;100423.33;105627;1269;99322;-82
2023/09/12 06:40:19;;;;;;;32.70;29.20;;;;;;;18.63;100.00;100425.46;105404;1270;102761;-81
2023/09/12 06:43:05;;;;;;;33.50;28.20;;;;;;;18.74;100.00;100425.30;105433;1267;99390;-81
2023/09/12 06:45:51;;;;;;;32.00;27.90;;;;;;;18.86;100.00;100426.69;105558;1270;99360;-81
2023/09/12 06:48:36;;;;;;;31.70;27.70;;;;;;;18.98;100.00;100425.87;105492;1270;99262;-82
2023/09/12 06:51:28;;;;;;;34.50;28.60;;;;;;;19.09;100.00;100424.38;105590;1270;99771;-84
2023/09/12 06:54:14;;;;;;;36.80;27.30;;;;;;;19.20;100.00;100429.67;105537;1269;102930;-82
2023/09/12 06:57:00;;;;;;;34.10;27.00;;;;;;;19.32;100.00;100429.05;105244;1270;99781;-80
2023/09/12 06:59:49;;;;;;;29.20;24.90;;;;;;;19.44;100.00;100428.38;105419;1270;100088;-82
2023/09/12 07:02:34;;;;;;;32.90;26.30;;;;;;;19.57;100.00;100429.89;105393;1269;99353;-88
2023/09/12 07:05:20;;;;;;;31.00;26.40;;;;;;;19.69;99.91;100431.37;105350;1273;99330;-86
2023/09/12 07:08:06;;;;;;;29.30;24.80;;;;;;;19.81;99.96;100435.89;105436;1273;102832;-86
2023/09/12 07:10:56;;;;;;;31.30;26.30;;;;;;;19.92;99.90;100436.96;105579;1270;101382;-85
2023/09/12 07:13:42;;;;;;;29.60;26.40;;;;;;;20.02;99.93;100437.64;105217;1277;99495;-85
2023/09/12 07:16:28;;;;;;;34.20;26.40;;;;;;;20.15;100.00;100436.33;105552;1270;102872;-85
2023/09/12 07:19:14;;;;;;;27.40;24.50;;;;;;;20.26;100.00;100441.08;105173;1267;99571;-84
2023/09/12 07:22:00;;;;;;;26.80;24.00;;;;;;;20.37;100.00;100441.52;105206;1270;103996;-85
2023/09/12 07:24:49;;;;;;;28.00;23.90;;;;;;;20.48;100.00;100442.95;105488;1270;107817;-85
2023/09/12 07:27:35;;;;;;;29.20;24.30;;;;;;;20.57;99.96;100442.56;105276;1276;99269;-86
2023/09/12 07:30:21;;;;;;;32.80;23.70;;;;;;;20.67;99.83;100444.20;105363;1270;99148;-84
2023/09/12 07:33:07;;;;;;;32.20;22.90;;;;;;;20.76;99.74;100441.90;105197;1272;99338;-85
2023/09/12 07:35:53;;;;;;;25.00;22.00;;;;;;;20.87;99.65;100444.98;105171;1270;112175;-85
2023/09/12 07:38:39;;;;;;;22.90;20.30;;;;;;;20.96;99.44;100443.56;105157;1270;99351;-85
2023/09/12 07:41:25;;;;;;;23.00;20.30;;;;;;;21.05;98.73;100439.20;105067;1268;99253;-86
2023/09/12 07:44:15;;;;;;;23.70;20.00;;;;;;;21.14;97.97;100439.52;105123;1273;100729;-85
2023/09/12 07:47:01;;;;;;;28.50;19.40;;;;;;;21.22;97.64;100440.40;105097;1273;99429;-84
2023/09/12 07:49:53;;;;;;;22.70;19.20;;;;;;;21.30;97.88;100437.13;105271;1273;102850;-84
2023/09/12 07:52:39;;;;;;;22.80;18.30;;;;;;;21.40;97.40;100434.38;105128;1276;100448;-86
2023/09/12 07:55:25;;;;;;;27.60;18.40;;;;;;;21.50;96.62;100435.91;105134;1270;99370;-86
2023/09/12 07:58:16;;;;;;;23.40;18.50;;;;;;;21.60;96.04;100432.66;105118;1270;99322;-86
2023/09/12 08:01:06;;;;;;;20.90;18.20;;;;;;;21.70;95.75;100430.87;105131;1273;99144;-85
2023/09/12 08:03:51;;;;;;;24.70;18.90;;;;;;;21.81;96.18;100432.70;105185;1270;104081;-85
2023/09/12 08:06:37;;;;;;;21.90;17.60;;;;;;;21.92;95.03;100432.17;105138;1270;99424;-85
2023/09/12 08:09:23;;;;;;;21.20;17.30;;;;;;;22.01;94.89;100429.42;105033;1272;99326;-85
2023/09/12 08:12:09;;;;;;;21.30;17.20;;;;;;;22.09;93.94;100429.42;105231;1270;99348;-86
2023/09/12 08:14:55;;;;;;;22.20;16.70;;;;;;;22.18;93.17;100428.42;105106;1274;100011;-86
2023/09/12 08:17:41;;;;;;;20.50;16.70;;;;;;;22.27;92.58;100428.29;105335;1269;104027;-86
2023/09/12 08:20:27;;;;;;;23.30;16.80;;;;;;;22.36;92.60;100434.16;105160;1270;99335;-86
2023/09/12 08:23:13;;;;;;;17.60;15.50;;;;;;;22.47;91.91;100436.55;105210;1271;99320;-86
2023/09/12 08:25:59;;;;;;;22.60;16.00;;;;;;;22.57;91.54;100438.65;105018;1270;99293;-87
2023/09/12 08:28:45;;;;;;;21.00;16.20;;;;;;;22.64;91.05;100438.27;105075;1270;99297;-89
2023/09/12 08:31:31;;;;;;;23.30;16.10;;;;;;;22.72;90.64;100434.45;105204;1273;104068;-87
2023/09/12 08:34:17;;;;;;;23.20;15.40;;;;;;;22.80;90.40;100434.47;105092;1273;100563;-86
2023/09/12 08:37:03;;;;;;;17.90;15.60;;;;;;;22.89;90.47;100436.08;105166;1268;99420;-86
2023/09/12 08:39:48;;;;;;;20.80;16.20;;;;;;;22.97;90.32;100437.17;105168;1270;99189;-86
2023/09/12 08:42:53;;;;;;;19.60;17.10;;;;;;;23.06;89.95;100436.08;105057;1269;97364;-86
2023/09/12 08:45:39;;;;;;;27.00;16.60;;;;;;;23.17;90.59;100434.72;105111;1273;104086;-87
2023/09/12 08:48:25;;;;;;;18.90;17.10;;;;;;;23.27;89.44;100437.02;105174;1270;100371;-84
2023/09/12 08:51:12;;;;;;;20.90;16.10;;;;;;;23.35;88.55;100441.46;105153;1269;99461;-86
2023/09/12 08:53:59;;;;;;;18.40;15.30;;;;;;;23.42;87.96;100435.50;104894;1270;99502;-86
2023/09/12 08:56:45;;;;;;;22.00;17.30;;;;;;;23.51;87.17;100431.17;105107;1273;99501;-85
2023/09/12 08:59:35;;;;;;;20.50;15.40;;;;;;;23.60;87.51;100429.73;105230;1270;102848;-85
2023/09/12 09:02:21;;;;;;;21.70;16.10;;;;;;;23.70;87.64;100431.90;105142;1270;100792;-89
2023/09/12 09:05:09;;;;;;;19.60;15.50;;;;;;;23.83;87.63;100430.17;105141;1270;99358;-86
2023/09/12 09:07:55;;;;;;;19.90;15.60;;;;;;;23.91;86.77;100430.42;105638;1270;99354;-88
2023/09/12 09:10:55;;;;;;;22.10;15.50;;;;;;;24.01;86.17;100428.70;105696;1270;101089;-88
2023/09/12 09:13:41;;;;;;;17.50;15.50;;;;;;;24.09;85.57;100429.23;105565;1269;103372;-89
2023/09/12 09:16:27;;;;;;;19.20;14.80;;;;;;;24.15;85.58;100424.02;105347;1272;100051;-84
2023/09/12 09:19:13;;;;;;;17.10;14.80;;;;;;;24.24;86.23;100427.86;105092;1271;100174;-84
2023/09/12 09:22:06;;;;;;;17.80;15.20;;;;;;;24.38;86.39;100427.25;105405;1269;99237;-83
2023/09/12 09:25:09;;;;;;;16.50;14.60;;;;;;;24.47;85.22;100429.95;106788;1272;99236;-83
2023/09/12 09:27:55;;;;;;;17.30;14.20;;;;;;;24.57;84.81;100429.19;105091;1270;102909;-83
2023/09/12 09:30:53;;;;;;;21.90;14.70;;;;;;;24.67;84.16;100423.21;105296;1270;99323;-85
2023/09/12 09:33:40;;;;;;;19.20;13.40;;;;;;;24.77;82.32;100420.42;105370;1273;106427;-82
2023/09/12 09:36:26;;;;;;;19.20;13.70;;;;;;;24.85;81.12;100420.36;105131;1270;99360;-83
2023/09/12 09:39:12;;;;;;;15.50;13.50;;;;;;;24.94;80.59;100421.36;105215;1270;100623;-83
2023/09/12 09:41:58;;;;;;;15.40;13.90;;;;;;;25.02;80.57;100421.30;105153;1270;102870;-81
2023/09/12 09:44:44;;;;;;;15.70;12.90;;;;;;;25.11;80.01;100420.83;105222;1270;99451;-83
2023/09/12 09:47:30;;;;;;;15.00;12.80;;;;;;;25.18;77.29;100423.19;105114;1273;99324;-81
2023/09/12 09:50:15;;;;;;;16.60;13.30;;;;;;;25.25;76.32;100419.40;105218;1269;99263;-83
2023/09/12 09:53:01;;;;;;;18.10;13.00;;;;;;;25.33;75.65;100421.36;105092;1269;99940;-84
2023/09/12 09:55:47;;;;;;;15.70;13.00;;;;;;;25.41;74.53;100417.14;105192;1273;102718;-83
2023/09/12 09:58:33;;;;;;;18.90;12.30;;;;;;;25.47;73.79;100418.73;105316;1273;99437;-83
2023/09/12 10:01:21;;;;;;;19.60;13.60;;;;;;;25.53;73.45;100417.37;105276;1269;99319;-83
2023/09/12 10:04:07;;;;;;;14.10;12.60;;;;;;;25.59;74.27;100414.66;105313;1269;99420;-83
2023/09/12 10:06:55;;;;;;;16.90;12.90;;;;;;;25.66;74.41;100411.30;105449;1269;99347;-83
2023/09/12 10:09:43;;;;;;;15.00;12.80;;;;;;;25.71;72.56;100408.50;105218;1273;102753;-83
2023/09/12 10:12:31;;;;;;;15.10;13.00;;;;;;;25.76;71.40;100408.23;105242;1270;99352;-84
2023/09/12 10:15:20;;;;;;;22.20;13.10;;;;;;;25.85;72.16;100404.51;105263;1272;99782;-83
2023/09/12 10:18:09;;;;;;;17.40;13.10;;;;;;;25.95;73.01;100404.27;105304;1270;99428;-83
2023/09/12 10:21:04;;;;;;;16.10;10.90;;;;;;;26.03;72.40;100406.70;105358;1273;99338;-82
2023/09/12 10:23:50;;;;;;;15.00;12.00;;;;;;;26.08;69.53;100407.70;105388;1270;102763;-82
2023/09/12 10:26:42;;;;;;;14.40;11.70;;;;;;;26.13;69.23;100400.02;105518;1270;99589;-82
2023/09/12 10:29:28;;;;;;;12.80;11.30;;;;;;;26.21;68.67;100400.98;105236;1273;99425;-83
2023/09/12 10:32:16;;;;;;;19.50;11.70;;;;;;;26.27;68.12;100399.89;105487;1273;99277;-81
2023/09/12 10:35:10;;;;;;;17.10;11.70;;;;;;;26.32;67.63;100397.89;105772;1270;99301;-87
2023/09/12 10:38:00;;;;;;;11.10;9.70;;;;;;;26.41;67.35;100398.70;105690;1270;102781;-86
2023/09/12 10:40:47;;;;;;;10.80;9.70;;;;;;;26.49;66.48;100400.08;105793;1272;100945;-87
2023/09/12 10:43:35;;;;;;;16.90;10.00;;;;;;;26.56;65.77;100396.63;105742;1270;99237;-89
2023/09/12 10:46:22;;;;;;;13.50;10.00;;;;;;;26.66;65.20;100394.17;106151;1270;99477;-89
2023/09/12 10:49:13;;;;;;;11.60;8.90;;;;;;;26.75;64.36;100394.27;105610;1272;99392;-85
2023/09/12 10:51:59;;;;;;;11.50;10.10;;;;;;;26.84;62.66;100393.33;105849;1271;102669;-87
2023/09/12 10:54:46;;;;;;;16.00;9.50;;;;;;;26.89;61.51;100389.73;105383;1270;99987;-86
2023/09/12 10:57:33;;;;;;;10.30;9.20;;;;;;;26.94;61.94;100388.16;105527;1269;99332;-84
2023/09/12 11:00:22;;;;;;;10.50;9.30;;;;;;;27.01;61.77;100386.62;105755;1273;97740;-89
2023/09/12 11:03:30;;;;;;;13.10;9.70;;;;;;;27.08;60.90;100389.41;105328;1270;99844;-82
2023/09/12 11:06:22;;;;;;;10.50;8.90;;;;;;;27.13;60.18;100387.61;105844;1270;102876;-90
2023/09/12 11:09:14;;;;;;;12.50;9.80;;;;;;;27.19;60.10;100387.64;106051;1271;99223;-89
2023/09/12 11:12:25;;;;;;;10.30;8.90;;;;;;;27.24;59.13;100385.57;106060;1269;99105;-91
2023/09/12 11:15:15;;;;;;;12.10;9.00;;;;;;;27.31;59.10;100388.07;105222;1273;99417;-85
2023/09/12 11:18:04;;;;;;;10.80;9.30;;;;;;;27.41;58.65;100385.22;105175;1270;99347;-83
2023/09/12 11:21:03;;;;;;;10.70;8.40;;;;;;;27.48;57.91;100385.31;105512;1270;103977;-87
2023/09/12 11:23:54;;;;;;;13.40;8.90;;;;;;;27.51;57.26;100383.94;105512;1273;99336;-86
2023/09/12 11:26:57;;;;;;;10.60;9.00;;;;;;;27.54;56.98;100385.42;105762;1273;99336;-86
2023/09/12 11:29:45;;;;;;;14.40;9.20;;;;;;;27.57;56.34;100386.27;105448;1269;99271;-87
2023/09/12 11:32:32;;;;;;;12.20;9.40;;;;;;;27.61;56.96;100386.17;105443;1270;99240;-86
2023/09/12 11:35:28;;;;;;;12.40;8.90;;;;;;;27.66;56.95;100385.13;105608;1269;102848;-86
2023/09/12 11:38:27;;;;;;;10.80;9.10;;;;;;;27.73;56.23;100381.98;105653;1268;100426;-86
2023/09/12 11:41:13;;;;;;;9.30;8.50;;;;;;;27.77;56.39;100381.23;105389;1270;100070;-86
2023/09/12 11:43:59;;;;;;;13.80;9.20;;;;;;;27.81;56.71;100380.75;105271;1273;99251;-86
2023/09/12 11:46:48;;;;;;;14.90;8.30;;;;;;;27.86;55.53;100381.17;105444;1269;99346;-87
2023/09/12 11:49:40;;;;;;;11.70;8.40;;;;;;;27.86;53.89;100381.02;105074;1270;102702;-82
2023/09/12 11:52:26;;;;;;;10.30;8.50;;;;;;;27.85;53.82;100380.69;105149;1270;99552;-82
2023/09/12 11:55:21;;;;;;;10.90;8.20;;;;;;;27.87;53.95;100375.52;105202;1267;99364;-82
2023/09/12 11:58:07;;;;;;;10.30;9.30;;;;;;;27.90;53.89;100374.67;105113;1273;99325;-83
2023/09/12 12:00:55;;;;;;;11.10;9.00;;;;;;;27.95;54.11;100374.81;105119;1271;99822;-83
2023/09/12 12:03:41;;;;;;;14.40;8.90;;;;;;;27.99;53.31;100374.91;105045;1270;102733;-83
2023/09/12 12:06:27;;;;;;;13.10;8.90;;;;;;;28.03;53.41;100373.52;105265;1273;100387;-83
2023/09/12 12:09:14;;;;;;;10.60;9.30;;;;;;;28.07;53.28;100376.17;105033;1275;99413;-83
2023/09/12 12:12:04;;;;;;;10.70;9.50;;;;;;;28.12;53.50;100371.84;104936;1273;100021;-83
2023/09/12 12:14:50;;;;;;;10.20;8.60;;;;;;;28.14;52.92;100373.45;105144;1273;100536;-83
2023/09/12 12:17:37;;;;;;;14.60;9.00;;;;;;;28.14;52.26;100371.19;105101;1268;102772;-82
2023/09/12 12:20:23;;;;;;;12.60;9.20;;;;;;;28.16;52.38;100368.98;104999;1269;99303;-84
2023/09/12 12:23:09;;;;;;;12.90;8.70;;;;;;;28.19;52.94;100370.30;104826;1269;99418;-83
2023/09/12 12:25:54;;;;;;;10.30;9.10;;;;;;;28.25;52.83;100369.74;104925;1273;99373;-83
2023/09/12 12:28:40;;;;;;;10.70;9.60;;;;;;;28.31;52.91;100370.70;105194;1270;99316;-83